Terminal Aerodrome Forecast
Issued by NWS

Home | Current Version | Previous Version | Text Only | Print | Product List | Glossary On
Versions: 1 2 3 4 5 6 7 8 9 10 11 12 13 14 15 16 17 18 19 20 21 22 23 24 25 26 27 28 29 30 31 32 33 34
000
FTUS45 KLKN 161739
TAFEKO
TAF
KEKO 161739Z 1618/1718 24006KT P6SM -SHRA BKN050
     FM162000 13008KT P6SM -SHRA OVC030
     FM162300 VRB06KT P6SM VCSH BKN040
     FM170300 18015KT P6SM VCSH SCT020 BKN040
     FM171000 22011G22KT P6SM -SHRA BKN025 OVC050=

USA.gov is the U.S. government's official web portal to all federal, state and local government web resources and services.